sensor_id;sensor_type;location;lat;lon;timestamp;P1;durP1;ratioP1;P2;durP2;ratioP2
74892;SDS011;63446;56.272;43.922;2024-02-26T00:01:43;4.03;;;1.35;;
74892;SDS011;63446;56.272;43.922;2024-02-26T00:04:09;4.00;;;0.90;;
74892;SDS011;63446;56.272;43.922;2024-02-26T00:06:39;6.40;;;1.40;;
74892;SDS011;63446;56.272;43.922;2024-02-26T00:09:08;5.90;;;1.50;;
74892;SDS011;63446;56.272;43.922;2024-02-26T00:11:35;4.80;;;1.30;;
74892;SDS011;63446;56.272;43.922;2024-02-26T00:14:02;5.78;;;1.00;;
74892;SDS011;63446;56.272;43.922;2024-02-26T00:16:28;6.35;;;1.50;;
74892;SDS011;63446;56.272;43.922;2024-02-26T00:18:55;5.32;;;1.13;;
74892;SDS011;63446;56.272;43.922;2024-02-26T00:21:20;4.17;;;1.07;;
74892;SDS011;63446;56.272;43.922;2024-02-26T00:23:46;5.35;;;1.58;;
74892;SDS011;63446;56.272;43.922;2024-02-26T00:26:12;7.13;;;1.23;;
74892;SDS011;63446;56.272;43.922;2024-02-26T00:28:38;4.17;;;1.20;;
74892;SDS011;63446;56.272;43.922;2024-02-26T00:31:04;5.40;;;1.20;;
74892;SDS011;63446;56.272;43.922;2024-02-26T00:33:31;4.43;;;0.90;;
74892;SDS011;63446;56.272;43.922;2024-02-26T00:35:56;7.20;;;1.40;;
74892;SDS011;63446;56.272;43.922;2024-02-26T00:38:23;7.57;;;1.40;;
74892;SDS011;63446;56.272;43.922;2024-02-26T00:40:48;5.45;;;1.23;;
74892;SDS011;63446;56.272;43.922;2024-02-26T00:43:14;5.27;;;1.40;;
74892;SDS011;63446;56.272;43.922;2024-02-26T00:45:40;4.65;;;1.15;;
74892;SDS011;63446;56.272;43.922;2024-02-26T00:48:06;4.73;;;1.33;;
74892;SDS011;63446;56.272;43.922;2024-02-26T00:50:36;4.40;;;1.10;;
74892;SDS011;63446;56.272;43.922;2024-02-26T00:53:02;5.93;;;1.30;;
74892;SDS011;63446;56.272;43.922;2024-02-26T00:55:28;3.65;;;1.05;;
74892;SDS011;63446;56.272;43.922;2024-02-26T00:57:54;6.10;;;1.30;;
74892;SDS011;63446;56.272;43.922;2024-02-26T01:00:20;5.30;;;1.40;;
74892;SDS011;63446;56.272;43.922;2024-02-26T01:02:46;4.53;;;1.17;;
74892;SDS011;63446;56.272;43.922;2024-02-26T01:05:12;5.13;;;1.40;;
74892;SDS011;63446;56.272;43.922;2024-02-26T01:07:39;4.38;;;1.13;;
74892;SDS011;63446;56.272;43.922;2024-02-26T01:10:05;6.25;;;1.00;;
74892;SDS011;63446;56.272;43.922;2024-02-26T01:12:32;6.45;;;1.10;;
74892;SDS011;63446;56.272;43.922;2024-02-26T01:14:59;5.22;;;1.48;;
74892;SDS011;63446;56.272;43.922;2024-02-26T01:17:27;5.47;;;1.50;;
74892;SDS011;63446;56.272;43.922;2024-02-26T01:19:52;4.70;;;1.33;;
74892;SDS011;63446;56.272;43.922;2024-02-26T01:22:19;4.72;;;1.33;;
74892;SDS011;63446;56.272;43.922;2024-02-26T01:24:45;6.63;;;1.60;;
74892;SDS011;63446;56.272;43.922;2024-02-26T01:27:12;8.18;;;2.15;;
74892;SDS011;63446;56.272;43.922;2024-02-26T01:29:39;5.63;;;1.40;;
74892;SDS011;63446;56.272;43.922;2024-02-26T01:32:05;6.03;;;1.48;;
74892;SDS011;63446;56.272;43.922;2024-02-26T01:34:31;4.40;;;1.10;;
74892;SDS011;63446;56.272;43.922;2024-02-26T01:36:57;8.07;;;1.80;;
74892;SDS011;63446;56.272;43.922;2024-02-26T01:39:23;6.17;;;1.30;;
74892;SDS011;63446;56.272;43.922;2024-02-26T01:41:50;5.38;;;1.40;;
74892;SDS011;63446;56.272;43.922;2024-02-26T01:44:16;4.77;;;1.03;;
74892;SDS011;63446;56.272;43.922;2024-02-26T01:46:42;4.93;;;1.40;;
74892;SDS011;63446;56.272;43.922;2024-02-26T01:49:08;4.55;;;1.40;;
74892;SDS011;63446;56.272;43.922;2024-02-26T01:51:37;4.57;;;1.17;;
74892;SDS011;63446;56.272;43.922;2024-02-26T01:54:05;7.80;;;1.58;;
74892;SDS011;63446;56.272;43.922;2024-02-26T01:56:33;4.43;;;1.13;;
74892;SDS011;63446;56.272;43.922;2024-02-26T01:59:00;6.45;;;1.30;;
74892;SDS011;63446;56.272;43.922;2024-02-26T02:01:27;6.47;;;1.42;;
74892;SDS011;63446;56.272;43.922;2024-02-26T02:03:57;4.72;;;1.05;;
74892;SDS011;63446;56.272;43.922;2024-02-26T02:06:24;4.78;;;1.45;;
74892;SDS011;63446;56.272;43.922;2024-02-26T02:08:50;4.43;;;1.17;;
74892;SDS011;63446;56.272;43.922;2024-02-26T02:11:16;4.80;;;1.55;;
74892;SDS011;63446;56.272;43.922;2024-02-26T02:13:42;5.63;;;1.40;;
74892;SDS011;63446;56.272;43.922;2024-02-26T02:16:09;4.70;;;1.30;;
74892;SDS011;63446;56.272;43.922;2024-02-26T02:18:35;7.10;;;1.70;;
74892;SDS011;63446;56.272;43.922;2024-02-26T02:21:01;4.70;;;1.33;;
74892;SDS011;63446;56.272;43.922;2024-02-26T02:23:28;6.47;;;1.50;;
74892;SDS011;63446;56.272;43.922;2024-02-26T02:25:54;5.53;;;1.40;;
74892;SDS011;63446;56.272;43.922;2024-02-26T02:28:25;5.00;;;1.38;;
74892;SDS011;63446;56.272;43.922;2024-02-26T02:30:52;5.23;;;1.20;;
74892;SDS011;63446;56.272;43.922;2024-02-26T02:33:18;4.63;;;1.55;;
74892;SDS011;63446;56.272;43.922;2024-02-26T02:35:45;6.78;;;1.40;;
74892;SDS011;63446;56.272;43.922;2024-02-26T02:38:11;7.93;;;1.50;;
74892;SDS011;63446;56.272;43.922;2024-02-26T02:40:37;6.95;;;1.70;;
74892;SDS011;63446;56.272;43.922;2024-02-26T02:43:04;6.25;;;1.70;;
74892;SDS011;63446;56.272;43.922;2024-02-26T02:45:30;6.90;;;1.63;;
74892;SDS011;63446;56.272;43.922;2024-02-26T02:47:56;6.23;;;1.73;;
74892;SDS011;63446;56.272;43.922;2024-02-26T02:50:21;5.97;;;1.50;;
74892;SDS011;63446;56.272;43.922;2024-02-26T02:52:47;8.37;;;1.90;;
74892;SDS011;63446;56.272;43.922;2024-02-26T02:55:16;6.35;;;1.60;;
74892;SDS011;63446;56.272;43.922;2024-02-26T02:57:42;7.72;;;1.90;;
74892;SDS011;63446;56.272;43.922;2024-02-26T03:00:08;6.70;;;1.40;;
74892;SDS011;63446;56.272;43.922;2024-02-26T03:02:36;5.93;;;2.00;;
74892;SDS011;63446;56.272;43.922;2024-02-26T03:05:05;8.57;;;1.77;;
74892;SDS011;63446;56.272;43.922;2024-02-26T03:07:32;5.85;;;1.50;;
74892;SDS011;63446;56.272;43.922;2024-02-26T03:09:57;8.13;;;1.70;;
74892;SDS011;63446;56.272;43.922;2024-02-26T03:12:23;6.40;;;1.38;;
74892;SDS011;63446;56.272;43.922;2024-02-26T03:14:49;6.25;;;1.60;;
74892;SDS011;63446;56.272;43.922;2024-02-26T03:17:15;5.60;;;1.80;;
74892;SDS011;63446;56.272;43.922;2024-02-26T03:19:41;5.40;;;1.52;;
74892;SDS011;63446;56.272;43.922;2024-02-26T03:22:09;7.25;;;1.88;;
74892;SDS011;63446;56.272;43.922;2024-02-26T03:24:34;8.57;;;1.50;;
74892;SDS011;63446;56.272;43.922;2024-02-26T03:27:00;4.97;;;1.80;;
74892;SDS011;63446;56.272;43.922;2024-02-26T03:29:26;6.07;;;1.60;;
74892;SDS011;63446;56.272;43.922;2024-02-26T03:31:51;5.70;;;1.52;;
74892;SDS011;63446;56.272;43.922;2024-02-26T03:34:17;6.90;;;1.53;;
74892;SDS011;63446;56.272;43.922;2024-02-26T03:36:45;8.00;;;1.67;;
74892;SDS011;63446;56.272;43.922;2024-02-26T03:39:10;6.83;;;2.03;;
74892;SDS011;63446;56.272;43.922;2024-02-26T03:41:38;6.75;;;1.35;;
74892;SDS011;63446;56.272;43.922;2024-02-26T03:44:04;9.05;;;1.77;;
74892;SDS011;63446;56.272;43.922;2024-02-26T03:46:30;6.80;;;1.67;;
74892;SDS011;63446;56.272;43.922;2024-02-26T03:48:56;7.28;;;2.40;;
74892;SDS011;63446;56.272;43.922;2024-02-26T03:51:22;4.93;;;1.50;;
74892;SDS011;63446;56.272;43.922;2024-02-26T03:53:48;6.60;;;1.48;;
74892;SDS011;63446;56.272;43.922;2024-02-26T03:56:14;6.27;;;1.83;;
74892;SDS011;63446;56.272;43.922;2024-02-26T03:58:40;6.28;;;1.73;;
74892;SDS011;63446;56.272;43.922;2024-02-26T04:01:09;7.60;;;1.70;;
74892;SDS011;63446;56.272;43.922;2024-02-26T04:03:35;4.95;;;1.58;;
74892;SDS011;63446;56.272;43.922;2024-02-26T04:06:01;7.30;;;1.55;;
74892;SDS011;63446;56.272;43.922;2024-02-26T04:08:28;7.10;;;1.67;;
74892;SDS011;63446;56.272;43.922;2024-02-26T04:10:55;6.65;;;1.95;;
74892;SDS011;63446;56.272;43.922;2024-02-26T04:13:21;4.10;;;1.33;;
74892;SDS011;63446;56.272;43.922;2024-02-26T04:15:46;6.63;;;1.90;;
74892;SDS011;63446;56.272;43.922;2024-02-26T04:18:12;7.70;;;1.67;;
74892;SDS011;63446;56.272;43.922;2024-02-26T04:20:39;7.03;;;1.52;;
74892;SDS011;63446;56.272;43.922;2024-02-26T04:23:08;9.25;;;2.05;;
74892;SDS011;63446;56.272;43.922;2024-02-26T04:25:34;9.40;;;1.70;;
74892;SDS011;63446;56.272;43.922;2024-02-26T04:27:59;5.53;;;1.70;;
74892;SDS011;63446;56.272;43.922;2024-02-26T04:30:25;8.60;;;1.65;;
74892;SDS011;63446;56.272;43.922;2024-02-26T04:32:51;6.53;;;1.50;;
74892;SDS011;63446;56.272;43.922;2024-02-26T04:35:17;8.38;;;1.48;;
74892;SDS011;63446;56.272;43.922;2024-02-26T04:37:43;5.75;;;1.42;;
74892;SDS011;63446;56.272;43.922;2024-02-26T04:40:10;5.75;;;1.50;;
74892;SDS011;63446;56.272;43.922;2024-02-26T04:42:36;12.55;;;1.80;;
74892;SDS011;63446;56.272;43.922;2024-02-26T04:45:02;8.37;;;1.83;;
74892;SDS011;63446;56.272;43.922;2024-02-26T04:47:29;6.38;;;1.40;;
74892;SDS011;63446;56.272;43.922;2024-02-26T04:49:55;9.83;;;1.60;;
74892;SDS011;63446;56.272;43.922;2024-02-26T04:52:21;6.60;;;1.60;;
74892;SDS011;63446;56.272;43.922;2024-02-26T04:54:49;7.00;;;1.80;;
74892;SDS011;63446;56.272;43.922;2024-02-26T04:57:15;6.37;;;2.03;;
74892;SDS011;63446;56.272;43.922;2024-02-26T04:59:44;5.72;;;1.70;;
74892;SDS011;63446;56.272;43.922;2024-02-26T05:02:11;5.20;;;1.52;;
74892;SDS011;63446;56.272;43.922;2024-02-26T05:04:37;5.90;;;1.90;;
74892;SDS011;63446;56.272;43.922;2024-02-26T05:07:03;6.40;;;1.77;;
74892;SDS011;63446;56.272;43.922;2024-02-26T05:09:30;4.97;;;1.95;;
74892;SDS011;63446;56.272;43.922;2024-02-26T05:11:55;5.80;;;1.80;;
74892;SDS011;63446;56.272;43.922;2024-02-26T05:14:21;6.67;;;1.70;;
74892;SDS011;63446;56.272;43.922;2024-02-26T05:16:47;10.27;;;1.75;;
74892;SDS011;63446;56.272;43.922;2024-02-26T05:19:13;6.10;;;2.00;;
74892;SDS011;63446;56.272;43.922;2024-02-26T05:21:39;7.55;;;1.65;;
74892;SDS011;63446;56.272;43.922;2024-02-26T05:24:09;6.53;;;1.77;;
74892;SDS011;63446;56.272;43.922;2024-02-26T05:26:35;8.75;;;2.35;;
74892;SDS011;63446;56.272;43.922;2024-02-26T05:29:03;6.32;;;1.70;;
74892;SDS011;63446;56.272;43.922;2024-02-26T05:31:28;9.33;;;2.17;;
74892;SDS011;63446;56.272;43.922;2024-02-26T05:33:54;5.70;;;1.70;;
74892;SDS011;63446;56.272;43.922;2024-02-26T05:36:21;8.02;;;1.83;;
74892;SDS011;63446;56.272;43.922;2024-02-26T05:38:49;7.57;;;1.90;;
74892;SDS011;63446;56.272;43.922;2024-02-26T05:41:16;8.32;;;1.98;;
74892;SDS011;63446;56.272;43.922;2024-02-26T05:43:45;5.18;;;1.70;;
74892;SDS011;63446;56.272;43.922;2024-02-26T05:46:11;9.87;;;1.70;;
74892;SDS011;63446;56.272;43.922;2024-02-26T05:48:38;7.13;;;2.20;;
74892;SDS011;63446;56.272;43.922;2024-02-26T05:51:05;8.65;;;2.05;;
74892;SDS011;63446;56.272;43.922;2024-02-26T05:53:31;8.98;;;2.30;;
74892;SDS011;63446;56.272;43.922;2024-02-26T05:55:57;6.27;;;1.83;;
74892;SDS011;63446;56.272;43.922;2024-02-26T05:58:23;5.32;;;1.52;;
74892;SDS011;63446;56.272;43.922;2024-02-26T06:00:49;7.77;;;2.27;;
74892;SDS011;63446;56.272;43.922;2024-02-26T06:03:15;10.25;;;2.03;;
74892;SDS011;63446;56.272;43.922;2024-02-26T06:05:41;6.63;;;2.53;;
74892;SDS011;63446;56.272;43.922;2024-02-26T06:08:08;9.05;;;1.80;;
74892;SDS011;63446;56.272;43.922;2024-02-26T06:10:34;7.00;;;1.90;;
74892;SDS011;63446;56.272;43.922;2024-02-26T06:13:00;7.30;;;2.40;;
74892;SDS011;63446;56.272;43.922;2024-02-26T06:15:26;7.38;;;1.95;;
74892;SDS011;63446;56.272;43.922;2024-02-26T06:17:53;6.90;;;2.20;;
74892;SDS011;63446;56.272;43.922;2024-02-26T06:20:19;8.80;;;2.60;;
74892;SDS011;63446;56.272;43.922;2024-02-26T06:22:45;9.35;;;2.45;;
74892;SDS011;63446;56.272;43.922;2024-02-26T06:25:11;10.50;;;2.22;;
74892;SDS011;63446;56.272;43.922;2024-02-26T06:27:37;8.03;;;2.40;;
74892;SDS011;63446;56.272;43.922;2024-02-26T06:30:02;11.10;;;3.25;;
74892;SDS011;63446;56.272;43.922;2024-02-26T06:32:30;8.63;;;2.40;;
74892;SDS011;63446;56.272;43.922;2024-02-26T06:34:56;14.40;;;3.10;;
74892;SDS011;63446;56.272;43.922;2024-02-26T06:37:22;12.40;;;2.75;;
74892;SDS011;63446;56.272;43.922;2024-02-26T06:39:48;9.27;;;2.23;;
74892;SDS011;63446;56.272;43.922;2024-02-26T06:42:14;5.43;;;1.95;;
74892;SDS011;63446;56.272;43.922;2024-02-26T06:44:39;7.10;;;2.10;;
74892;SDS011;63446;56.272;43.922;2024-02-26T06:47:05;8.15;;;2.47;;
74892;SDS011;63446;56.272;43.922;2024-02-26T06:49:33;8.23;;;2.25;;
74892;SDS011;63446;56.272;43.922;2024-02-26T06:51:58;8.87;;;2.50;;
74892;SDS011;63446;56.272;43.922;2024-02-26T06:54:24;7.70;;;2.60;;
74892;SDS011;63446;56.272;43.922;2024-02-26T06:56:51;10.77;;;2.53;;
74892;SDS011;63446;56.272;43.922;2024-02-26T06:59:16;10.17;;;2.60;;
74892;SDS011;63446;56.272;43.922;2024-02-26T07:01:42;13.65;;;2.90;;
74892;SDS011;63446;56.272;43.922;2024-02-26T07:04:10;9.20;;;2.63;;
74892;SDS011;63446;56.272;43.922;2024-02-26T07:06:36;9.77;;;2.67;;
74892;SDS011;63446;56.272;43.922;2024-02-26T07:09:02;10.35;;;2.30;;
74892;SDS011;63446;56.272;43.922;2024-02-26T07:11:28;7.82;;;2.33;;
74892;SDS011;63446;56.272;43.922;2024-02-26T07:13:54;9.43;;;2.37;;
74892;SDS011;63446;56.272;43.922;2024-02-26T07:16:21;6.75;;;2.42;;
74892;SDS011;63446;56.272;43.922;2024-02-26T07:18:47;7.30;;;2.03;;
74892;SDS011;63446;56.272;43.922;2024-02-26T07:21:13;10.10;;;2.30;;
74892;SDS011;63446;56.272;43.922;2024-02-26T07:23:38;9.05;;;2.35;;
74892;SDS011;63446;56.272;43.922;2024-02-26T07:26:04;8.17;;;1.87;;
74892;SDS011;63446;56.272;43.922;2024-02-26T07:28:31;9.43;;;2.42;;
74892;SDS011;63446;56.272;43.922;2024-02-26T07:30:56;8.33;;;2.30;;
74892;SDS011;63446;56.272;43.922;2024-02-26T07:33:22;6.53;;;2.05;;
74892;SDS011;63446;56.272;43.922;2024-02-26T07:35:49;8.32;;;2.13;;
74892;SDS011;63446;56.272;43.922;2024-02-26T07:38:14;6.23;;;2.30;;
74892;SDS011;63446;56.272;43.922;2024-02-26T07:40:40;9.55;;;1.98;;
74892;SDS011;63446;56.272;43.922;2024-02-26T07:43:06;9.55;;;2.40;;
74892;SDS011;63446;56.272;43.922;2024-02-26T07:45:32;8.50;;;2.40;;
74892;SDS011;63446;56.272;43.922;2024-02-26T07:47:58;7.97;;;2.03;;
74892;SDS011;63446;56.272;43.922;2024-02-26T07:50:25;10.27;;;2.72;;
74892;SDS011;63446;56.272;43.922;2024-02-26T07:52:50;7.60;;;2.27;;
74892;SDS011;63446;56.272;43.922;2024-02-26T07:55:19;9.15;;;2.58;;
74892;SDS011;63446;56.272;43.922;2024-02-26T07:57:45;9.83;;;2.63;;
74892;SDS011;63446;56.272;43.922;2024-02-26T08:00:11;9.10;;;2.60;;
74892;SDS011;63446;56.272;43.922;2024-02-26T08:02:37;13.60;;;2.78;;
74892;SDS011;63446;56.272;43.922;2024-02-26T08:05:03;11.77;;;3.15;;
74892;SDS011;63446;56.272;43.922;2024-02-26T08:07:30;7.28;;;2.58;;
74892;SDS011;63446;56.272;43.922;2024-02-26T08:09:55;11.02;;;3.40;;
74892;SDS011;63446;56.272;43.922;2024-02-26T08:12:22;8.52;;;2.88;;
74892;SDS011;63446;56.272;43.922;2024-02-26T08:14:48;9.67;;;2.87;;
74892;SDS011;63446;56.272;43.922;2024-02-26T08:17:14;9.48;;;2.50;;
74892;SDS011;63446;56.272;43.922;2024-02-26T08:19:39;7.88;;;2.47;;
74892;SDS011;63446;56.272;43.922;2024-02-26T08:22:05;6.97;;;2.77;;
74892;SDS011;63446;56.272;43.922;2024-02-26T08:24:31;7.47;;;2.40;;
74892;SDS011;63446;56.272;43.922;2024-02-26T08:26:57;9.20;;;2.40;;
74892;SDS011;63446;56.272;43.922;2024-02-26T08:29:23;8.25;;;2.35;;
74892;SDS011;63446;56.272;43.922;2024-02-26T08:31:49;11.60;;;2.55;;
74892;SDS011;63446;56.272;43.922;2024-02-26T08:34:15;9.17;;;2.50;;
74892;SDS011;63446;56.272;43.922;2024-02-26T08:36:41;10.13;;;2.80;;
74892;SDS011;63446;56.272;43.922;2024-02-26T08:39:08;9.93;;;2.28;;
74892;SDS011;63446;56.272;43.922;2024-02-26T08:41:34;11.43;;;2.70;;
74892;SDS011;63446;56.272;43.922;2024-02-26T08:44:00;12.38;;;2.10;;
74892;SDS011;63446;56.272;43.922;2024-02-26T08:46:26;9.60;;;2.80;;
74892;SDS011;63446;56.272;43.922;2024-02-26T08:48:52;8.80;;;2.50;;
74892;SDS011;63446;56.272;43.922;2024-02-26T08:51:17;6.78;;;2.60;;
74892;SDS011;63446;56.272;43.922;2024-02-26T08:53:43;5.67;;;1.97;;
74892;SDS011;63446;56.272;43.922;2024-02-26T08:56:10;10.93;;;2.40;;
74892;SDS011;63446;56.272;43.922;2024-02-26T08:58:45;7.40;;;2.60;;
74892;SDS011;63446;56.272;43.922;2024-02-26T09:01:14;5.53;;;1.80;;
74892;SDS011;63446;56.272;43.922;2024-02-26T09:03:40;7.68;;;2.85;;
74892;SDS011;63446;56.272;43.922;2024-02-26T09:06:06;7.35;;;2.33;;
74892;SDS011;63446;56.272;43.922;2024-02-26T09:08:34;10.82;;;2.28;;
74892;SDS011;63446;56.272;43.922;2024-02-26T09:11:02;8.40;;;2.45;;
74892;SDS011;63446;56.272;43.922;2024-02-26T09:13:28;7.97;;;2.20;;
74892;SDS011;63446;56.272;43.922;2024-02-26T09:15:55;10.13;;;2.40;;
74892;SDS011;63446;56.272;43.922;2024-02-26T09:18:20;10.60;;;2.58;;
74892;SDS011;63446;56.272;43.922;2024-02-26T09:20:47;7.93;;;2.77;;
74892;SDS011;63446;56.272;43.922;2024-02-26T09:23:13;9.63;;;2.85;;
74892;SDS011;63446;56.272;43.922;2024-02-26T09:25:41;10.80;;;2.67;;
74892;SDS011;63446;56.272;43.922;2024-02-26T09:28:07;10.30;;;3.20;;
74892;SDS011;63446;56.272;43.922;2024-02-26T09:30:32;8.35;;;2.60;;
74892;SDS011;63446;56.272;43.922;2024-02-26T09:32:58;10.83;;;3.27;;
74892;SDS011;63446;56.272;43.922;2024-02-26T09:35:24;6.82;;;2.80;;
74892;SDS011;63446;56.272;43.922;2024-02-26T09:37:50;11.27;;;2.63;;
74892;SDS011;63446;56.272;43.922;2024-02-26T09:40:16;9.50;;;2.67;;
74892;SDS011;63446;56.272;43.922;2024-02-26T09:42:44;8.13;;;2.70;;
74892;SDS011;63446;56.272;43.922;2024-02-26T09:45:18;9.20;;;2.25;;
74892;SDS011;63446;56.272;43.922;2024-02-26T09:47:45;10.88;;;2.38;;
74892;SDS011;63446;56.272;43.922;2024-02-26T09:50:13;8.25;;;2.17;;
74892;SDS011;63446;56.272;43.922;2024-02-26T09:52:43;7.50;;;2.53;;
74892;SDS011;63446;56.272;43.922;2024-02-26T09:55:12;10.07;;;2.10;;
74892;SDS011;63446;56.272;43.922;2024-02-26T09:57:37;10.98;;;2.05;;
74892;SDS011;63446;56.272;43.922;2024-02-26T10:00:08;7.28;;;2.08;;
74892;SDS011;63446;56.272;43.922;2024-02-26T10:02:39;8.03;;;2.40;;
74892;SDS011;63446;56.272;43.922;2024-02-26T10:05:06;7.50;;;2.08;;
74892;SDS011;63446;56.272;43.922;2024-02-26T10:07:35;10.82;;;2.50;;
74892;SDS011;63446;56.272;43.922;2024-02-26T10:10:03;12.55;;;2.45;;
74892;SDS011;63446;56.272;43.922;2024-02-26T10:12:50;8.65;;;1.90;;
74892;SDS011;63446;56.272;43.922;2024-02-26T10:15:16;4.57;;;1.77;;
74892;SDS011;63446;56.272;43.922;2024-02-26T10:17:42;11.25;;;2.38;;
74892;SDS011;63446;56.272;43.922;2024-02-26T10:20:18;7.40;;;2.00;;
74892;SDS011;63446;56.272;43.922;2024-02-26T10:22:46;4.63;;;1.67;;
74892;SDS011;63446;56.272;43.922;2024-02-26T10:25:12;9.68;;;2.05;;
74892;SDS011;63446;56.272;43.922;2024-02-26T10:27:42;5.82;;;1.92;;
74892;SDS011;63446;56.272;43.922;2024-02-26T10:30:20;8.88;;;1.80;;
74892;SDS011;63446;56.272;43.922;2024-02-26T10:32:49;8.63;;;2.17;;
74892;SDS011;63446;56.272;43.922;2024-02-26T10:35:17;5.55;;;2.13;;
74892;SDS011;63446;56.272;43.922;2024-02-26T10:37:44;9.95;;;2.00;;
74892;SDS011;63446;56.272;43.922;2024-02-26T10:40:13;13.25;;;2.30;;
74892;SDS011;63446;56.272;43.922;2024-02-26T10:42:41;8.15;;;2.13;;
74892;SDS011;63446;56.272;43.922;2024-02-26T10:45:08;5.87;;;1.90;;
74892;SDS011;63446;56.272;43.922;2024-02-26T10:47:36;7.60;;;2.03;;
74892;SDS011;63446;56.272;43.922;2024-02-26T10:50:04;6.85;;;1.90;;
74892;SDS011;63446;56.272;43.922;2024-02-26T10:52:32;6.70;;;2.20;;
74892;SDS011;63446;56.272;43.922;2024-02-26T10:55:02;6.88;;;1.95;;
74892;SDS011;63446;56.272;43.922;2024-02-26T10:57:40;8.40;;;1.93;;
74892;SDS011;63446;56.272;43.922;2024-02-26T11:00:11;8.55;;;2.22;;
74892;SDS011;63446;56.272;43.922;2024-02-26T11:02:40;9.00;;;2.13;;
74892;SDS011;63446;56.272;43.922;2024-02-26T11:05:07;7.97;;;2.50;;
74892;SDS011;63446;56.272;43.922;2024-02-26T11:07:34;6.00;;;1.80;;
74892;SDS011;63446;56.272;43.922;2024-02-26T11:10:07;6.77;;;1.83;;
74892;SDS011;63446;56.272;43.922;2024-02-26T11:12:35;6.85;;;2.13;;
74892;SDS011;63446;56.272;43.922;2024-02-26T11:15:02;6.72;;;1.80;;
74892;SDS011;63446;56.272;43.922;2024-02-26T11:17:30;8.23;;;1.85;;
74892;SDS011;63446;56.272;43.922;2024-02-26T11:19:58;7.80;;;1.80;;
74892;SDS011;63446;56.272;43.922;2024-02-26T11:22:25;9.17;;;1.70;;
74892;SDS011;63446;56.272;43.922;2024-02-26T11:24:53;8.45;;;2.55;;
74892;SDS011;63446;56.272;43.922;2024-02-26T11:27:21;9.75;;;2.63;;
74892;SDS011;63446;56.272;43.922;2024-02-26T11:30:09;8.90;;;2.55;;
74892;SDS011;63446;56.272;43.922;2024-02-26T11:32:36;8.30;;;2.15;;
74892;SDS011;63446;56.272;43.922;2024-02-26T11:35:04;8.07;;;1.60;;
74892;SDS011;63446;56.272;43.922;2024-02-26T11:37:32;7.65;;;2.28;;
74892;SDS011;63446;56.272;43.922;2024-02-26T11:40:01;11.02;;;1.85;;
74892;SDS011;63446;56.272;43.922;2024-02-26T11:42:29;11.60;;;1.70;;
74892;SDS011;63446;56.272;43.922;2024-02-26T11:44:56;10.00;;;1.88;;
74892;SDS011;63446;56.272;43.922;2024-02-26T11:47:26;6.80;;;2.30;;
74892;SDS011;63446;56.272;43.922;2024-02-26T11:49:52;7.22;;;2.05;;
74892;SDS011;63446;56.272;43.922;2024-02-26T11:52:18;6.68;;;1.80;;
74892;SDS011;63446;56.272;43.922;2024-02-26T11:57:21;8.33;;;2.20;;
74892;SDS011;63446;56.272;43.922;2024-02-26T11:59:47;7.53;;;1.90;;
74892;SDS011;63446;56.272;43.922;2024-02-26T12:02:37;8.45;;;1.80;;
74892;SDS011;63446;56.272;43.922;2024-02-26T12:05:09;8.93;;;1.77;;
74892;SDS011;63446;56.272;43.922;2024-02-26T12:07:45;5.97;;;2.00;;
74892;SDS011;63446;56.272;43.922;2024-02-26T12:15:24;6.22;;;1.65;;
74892;SDS011;63446;56.272;43.922;2024-02-26T12:17:52;6.32;;;1.98;;
74892;SDS011;63446;56.272;43.922;2024-02-26T12:20:18;7.07;;;1.73;;
74892;SDS011;63446;56.272;43.922;2024-02-26T12:22:46;9.67;;;2.00;;
74892;SDS011;63446;56.272;43.922;2024-02-26T12:25:15;14.00;;;1.85;;
74892;SDS011;63446;56.272;43.922;2024-02-26T12:27:41;6.22;;;1.90;;
74892;SDS011;63446;56.272;43.922;2024-02-26T12:30:08;6.25;;;2.00;;
74892;SDS011;63446;56.272;43.922;2024-02-26T12:32:34;8.95;;;2.45;;
74892;SDS011;63446;56.272;43.922;2024-02-26T12:35:01;8.80;;;1.70;;
74892;SDS011;63446;56.272;43.922;2024-02-26T12:37:27;7.25;;;1.92;;
74892;SDS011;63446;56.272;43.922;2024-02-26T12:39:53;8.23;;;2.00;;
74892;SDS011;63446;56.272;43.922;2024-02-26T12:42:20;9.00;;;1.92;;
74892;SDS011;63446;56.272;43.922;2024-02-26T12:44:52;9.18;;;1.90;;
74892;SDS011;63446;56.272;43.922;2024-02-26T12:47:18;8.97;;;2.13;;
74892;SDS011;63446;56.272;43.922;2024-02-26T12:49:46;10.45;;;2.25;;
74892;SDS011;63446;56.272;43.922;2024-02-26T12:52:14;7.10;;;1.80;;
74892;SDS011;63446;56.272;43.922;2024-02-26T12:54:41;6.85;;;1.90;;
74892;SDS011;63446;56.272;43.922;2024-02-26T12:57:08;5.30;;;1.80;;
74892;SDS011;63446;56.272;43.922;2024-02-26T12:59:36;7.87;;;2.00;;
74892;SDS011;63446;56.272;43.922;2024-02-26T13:02:03;10.35;;;2.08;;
74892;SDS011;63446;56.272;43.922;2024-02-26T13:04:30;8.48;;;1.80;;
74892;SDS011;63446;56.272;43.922;2024-02-26T13:06:56;9.75;;;2.10;;
74892;SDS011;63446;56.272;43.922;2024-02-26T13:09:31;9.98;;;2.00;;
74892;SDS011;63446;56.272;43.922;2024-02-26T13:11:59;9.10;;;2.13;;
74892;SDS011;63446;56.272;43.922;2024-02-26T13:14:26;7.40;;;1.90;;
74892;SDS011;63446;56.272;43.922;2024-02-26T13:16:55;6.15;;;2.03;;
74892;SDS011;63446;56.272;43.922;2024-02-26T13:19:23;8.90;;;1.60;;
74892;SDS011;63446;56.272;43.922;2024-02-26T13:21:49;7.80;;;1.80;;
74892;SDS011;63446;56.272;43.922;2024-02-26T13:24:14;8.43;;;2.03;;
74892;SDS011;63446;56.272;43.922;2024-02-26T13:26:43;7.57;;;1.98;;
74892;SDS011;63446;56.272;43.922;2024-02-26T13:29:09;8.65;;;2.17;;
74892;SDS011;63446;56.272;43.922;2024-02-26T13:31:43;10.63;;;2.17;;
74892;SDS011;63446;56.272;43.922;2024-02-26T13:34:08;10.10;;;2.13;;
74892;SDS011;63446;56.272;43.922;2024-02-26T13:36:34;8.68;;;2.10;;
74892;SDS011;63446;56.272;43.922;2024-02-26T13:39:01;9.20;;;2.03;;
74892;SDS011;63446;56.272;43.922;2024-02-26T13:41:30;9.43;;;1.90;;
74892;SDS011;63446;56.272;43.922;2024-02-26T13:43:56;7.80;;;2.25;;
74892;SDS011;63446;56.272;43.922;2024-02-26T13:46:23;11.85;;;2.38;;
74892;SDS011;63446;56.272;43.922;2024-02-26T13:48:49;8.07;;;1.90;;
74892;SDS011;63446;56.272;43.922;2024-02-26T13:51:14;7.85;;;2.20;;
74892;SDS011;63446;56.272;43.922;2024-02-26T13:53:42;9.27;;;1.92;;
74892;SDS011;63446;56.272;43.922;2024-02-26T13:56:08;8.30;;;2.43;;
74892;SDS011;63446;56.272;43.922;2024-02-26T13:58:35;9.40;;;1.77;;
74892;SDS011;63446;56.272;43.922;2024-02-26T14:01:02;6.85;;;2.13;;
74892;SDS011;63446;56.272;43.922;2024-02-26T14:03:29;10.13;;;2.03;;
74892;SDS011;63446;56.272;43.922;2024-02-26T14:05:54;8.13;;;1.95;;
74892;SDS011;63446;56.272;43.922;2024-02-26T14:08:22;9.35;;;1.90;;
74892;SDS011;63446;56.272;43.922;2024-02-26T14:10:48;8.48;;;1.88;;
74892;SDS011;63446;56.272;43.922;2024-02-26T14:13:14;10.33;;;2.20;;
74892;SDS011;63446;56.272;43.922;2024-02-26T14:15:40;9.85;;;2.15;;
74892;SDS011;63446;56.272;43.922;2024-02-26T14:18:06;9.87;;;2.47;;
74892;SDS011;63446;56.272;43.922;2024-02-26T14:20:33;11.13;;;2.30;;
74892;SDS011;63446;56.272;43.922;2024-02-26T14:23:00;8.10;;;2.00;;
74892;SDS011;63446;56.272;43.922;2024-02-26T14:25:26;8.43;;;1.88;;
74892;SDS011;63446;56.272;43.922;2024-02-26T14:27:52;7.60;;;2.50;;
74892;SDS011;63446;56.272;43.922;2024-02-26T14:30:18;8.40;;;2.22;;
74892;SDS011;63446;56.272;43.922;2024-02-26T14:32:44;6.95;;;2.05;;
74892;SDS011;63446;56.272;43.922;2024-02-26T14:35:12;6.28;;;2.05;;
74892;SDS011;63446;56.272;43.922;2024-02-26T14:37:39;10.23;;;2.00;;
74892;SDS011;63446;56.272;43.922;2024-02-26T14:40:05;15.23;;;2.60;;